createdAt,value
2023-02-11T00:00:32.894Z,71.18
2023-02-11T00:02:59.264Z,71.69
2023-02-11T00:05:25.653Z,71.15
2023-02-11T00:07:52.303Z,71.59
2023-02-11T00:10:18.686Z,71.36
2023-02-11T00:12:45.101Z,71.50
2023-02-11T00:15:11.661Z,71.42
2023-02-11T00:17:37.999Z,71.44
2023-02-11T00:20:07.174Z,71.55
2023-02-11T00:22:34.582Z,71.65
2023-02-11T00:25:00.955Z,71.29
2023-02-11T00:27:27.354Z,71.23
2023-02-11T00:29:53.722Z,71.41
2023-02-11T00:32:20.079Z,71.09
2023-02-11T00:34:46.538Z,71.50
2023-02-11T00:37:13.630Z,71.46
2023-02-11T00:39:39.980Z,71.09
2023-02-11T00:42:06.398Z,71.40
2023-02-11T00:44:32.758Z,71.62
2023-02-11T00:46:59.105Z,70.87
2023-02-11T00:49:25.522Z,71.41
2023-02-11T00:51:52.051Z,71.28
2023-02-11T00:54:18.432Z,71.17
2023-02-11T00:56:44.848Z,71.34
2023-02-11T00:59:11.211Z,71.00
2023-02-11T01:01:37.681Z,70.95
2023-02-11T01:04:04.175Z,70.71
2023-02-11T01:06:30.737Z,70.89
2023-02-11T01:08:57.079Z,70.99
2023-02-11T01:11:23.462Z,70.70
2023-02-11T01:13:50.294Z,70.90
2023-02-11T01:16:18.517Z,71.07
2023-02-11T01:18:44.944Z,71.12
2023-02-11T01:21:11.929Z,70.87
2023-02-11T01:23:38.350Z,70.74
2023-02-11T01:26:05.722Z,71.44
2023-02-11T01:28:32.916Z,71.13
2023-02-11T01:31:01.317Z,71.29
2023-02-11T01:33:28.030Z,71.27
2023-02-11T01:35:54.406Z,70.75
2023-02-11T01:38:25.961Z,71.24
2023-02-11T01:40:57.995Z,70.85
2023-02-11T01:43:25.582Z,71.13
2023-02-11T01:46:12.651Z,70.92
2023-02-11T01:48:43.823Z,71.34
2023-02-11T01:51:20.583Z,70.87
2023-02-11T01:54:06.693Z,70.96
2023-02-11T01:56:55.708Z,71.00
2023-02-11T01:59:32.060Z,71.14
2023-02-11T02:02:02.401Z,70.90
2023-02-11T02:04:35.833Z,70.63
2023-02-11T02:07:08.646Z,70.75
2023-02-11T02:09:41.896Z,70.66
2023-02-11T02:12:08.274Z,70.54
2023-02-11T02:14:38.538Z,70.88
2023-02-11T02:17:04.905Z,70.66
2023-02-11T02:20:09.141Z,70.51
2023-02-11T02:22:58.090Z,70.13
2023-02-11T02:26:14.710Z,70.34
2023-02-11T02:29:18.082Z,70.54
2023-02-11T02:32:16.619Z,70.38
2023-02-11T02:34:53.964Z,70.55
2023-02-11T02:37:47.372Z,70.72
2023-02-11T02:40:21.829Z,70.74
2023-02-11T02:42:49.206Z,70.38
2023-02-11T02:45:16.617Z,69.97
2023-02-11T02:47:44.017Z,70.04
2023-02-11T02:50:13.524Z,70.19
2023-02-11T02:53:18.927Z,70.01
2023-02-11T02:56:00.268Z,69.36
2023-02-11T02:58:54.436Z,69.58
2023-02-11T03:01:56.071Z,69.35
2023-02-11T03:04:38.403Z,69.35
2023-02-11T03:07:29.150Z,69.46
2023-02-11T03:10:02.673Z,68.98
2023-02-11T03:12:32.436Z,68.60
2023-02-11T03:14:59.455Z,68.26
2023-02-11T03:17:27.907Z,68.64
2023-02-11T03:19:55.135Z,68.59
2023-02-11T03:22:34.927Z,68.66
2023-02-11T03:25:02.704Z,68.71
2023-02-11T03:27:38.838Z,69.02
2023-02-11T03:30:30.499Z,68.74
2023-02-11T03:33:29.322Z,68.33
2023-02-11T03:36:01.582Z,68.30
2023-02-11T03:38:37.909Z,68.84
2023-02-11T03:41:07.906Z,69.22
2023-02-11T03:43:38.655Z,68.98
2023-02-11T03:46:06.209Z,69.17
2023-02-11T03:48:39.012Z,69.05
2023-02-11T03:51:07.949Z,69.06
2023-02-11T03:53:34.824Z,69.06
2023-02-11T03:56:04.968Z,68.91
2023-02-11T03:58:31.396Z,69.01
2023-02-11T04:00:57.910Z,69.09
2023-02-11T04:03:24.384Z,69.15
2023-02-11T04:05:51.027Z,69.03
2023-02-11T04:08:17.495Z,69.02
2023-02-11T04:10:45.176Z,69.44
2023-02-11T04:13:11.652Z,69.54
2023-02-11T04:15:38.029Z,69.60
2023-02-11T04:18:04.483Z,69.73
2023-02-11T04:20:30.948Z,69.51
2023-02-11T04:22:57.288Z,69.35
2023-02-11T04:25:24.291Z,69.63
2023-02-11T04:27:50.662Z,69.09
2023-02-11T04:30:17.040Z,69.40
2023-02-11T04:32:43.494Z,69.63
2023-02-11T04:35:09.913Z,69.40
2023-02-11T04:37:36.302Z,69.70
2023-02-11T04:40:02.939Z,69.89
2023-02-11T04:42:29.354Z,70.07
2023-02-11T04:44:55.700Z,70.24
2023-02-11T04:47:22.107Z,70.20
2023-02-11T04:49:48.492Z,69.97
2023-02-11T04:52:16.201Z,69.75
2023-02-11T04:54:42.595Z,70.31
2023-02-11T04:57:08.948Z,70.46
2023-02-11T04:59:35.329Z,70.53
2023-02-11T05:02:01.694Z,71.78
2023-02-11T05:04:28.107Z,74.06
2023-02-11T05:06:55.637Z,75.30
2023-02-11T05:09:23.476Z,75.30
2023-02-11T05:11:49.837Z,75.24
2023-02-11T05:14:16.204Z,74.95
2023-02-11T05:16:42.569Z,74.88
2023-02-11T05:19:08.925Z,75.16
2023-02-11T05:21:35.372Z,75.12
2023-02-11T05:24:01.753Z,74.88
2023-02-11T05:26:28.131Z,74.93
2023-02-11T05:28:54.501Z,75.04
2023-02-11T05:31:20.955Z,75.55
2023-02-11T05:33:47.430Z,75.40
2023-02-11T05:36:14.335Z,76.04
2023-02-11T05:38:42.499Z,75.86
2023-02-11T05:41:09.233Z,76.36
2023-02-11T05:43:36.505Z,77.08
2023-02-11T05:46:06.133Z,77.04
2023-02-11T05:48:32.805Z,77.23
2023-02-11T05:50:59.560Z,77.43
2023-02-11T05:53:26.009Z,78.17
2023-02-11T05:55:52.688Z,77.63
2023-02-11T05:58:19.203Z,78.10
2023-02-11T06:00:45.623Z,78.16
2023-02-11T06:03:12.018Z,77.80
2023-02-11T06:05:38.466Z,77.76
2023-02-11T06:08:05.043Z,78.11
2023-02-11T06:10:31.478Z,77.83
2023-02-11T06:12:57.804Z,77.85
2023-02-11T06:15:24.155Z,77.42
2023-02-11T06:17:50.869Z,77.62
2023-02-11T06:20:17.418Z,77.50
2023-02-11T06:22:43.922Z,77.20
2023-02-11T06:25:11.224Z,76.99
2023-02-11T06:27:38.142Z,77.11
2023-02-11T06:30:06.120Z,76.69
2023-02-11T06:32:43.912Z,76.27
2023-02-11T06:35:12.241Z,76.43
2023-02-11T06:37:39.790Z,75.75
2023-02-11T06:40:06.778Z,75.97
2023-02-11T06:42:33.131Z,75.93
2023-02-11T06:44:59.515Z,75.42
2023-02-11T06:47:25.918Z,75.60
2023-02-11T06:49:52.283Z,75.28
2023-02-11T06:52:18.649Z,75.35
2023-02-11T06:54:46.079Z,75.75
2023-02-11T06:57:12.435Z,75.89
2023-02-11T06:59:38.778Z,75.55
2023-02-11T07:02:05.263Z,76.38
2023-02-11T07:04:31.658Z,77.08
2023-02-11T07:06:58.023Z,77.56
2023-02-11T07:09:24.377Z,78.35
2023-02-11T07:11:50.713Z,79.11
2023-02-11T07:14:17.326Z,79.40
2023-02-11T07:16:43.684Z,79.80
2023-02-11T07:19:10.385Z,80.48
2023-02-11T07:21:36.720Z,80.44
2023-02-11T07:24:08.881Z,80.61
2023-02-11T07:26:37.051Z,80.74
2023-02-11T07:29:03.525Z,80.94
2023-02-11T07:31:31.181Z,80.60
2023-02-11T07:34:00.257Z,80.65
2023-02-11T07:36:27.962Z,80.63
2023-02-11T07:38:54.381Z,80.77
2023-02-11T07:41:22.988Z,81.12
2023-02-11T07:43:49.622Z,81.13
2023-02-11T07:46:35.658Z,80.94
2023-02-11T07:49:02.090Z,81.19
2023-02-11T07:51:30.320Z,81.10
2023-02-11T07:53:59.436Z,80.89
2023-02-11T07:56:26.255Z,80.60
2023-02-11T07:58:52.807Z,80.47
2023-02-11T08:01:24.902Z,80.52
2023-02-11T08:03:52.254Z,79.94
2023-02-11T08:06:20.967Z,79.72
2023-02-11T08:08:47.955Z,79.62
2023-02-11T08:11:17.419Z,79.55
2023-02-11T08:13:44.671Z,79.31
2023-02-11T08:16:19.935Z,78.79
2023-02-11T08:18:46.740Z,78.87
2023-02-11T08:21:13.071Z,78.10
2023-02-11T08:23:40.819Z,78.02
2023-02-11T08:26:11.017Z,77.73
2023-02-11T08:28:39.175Z,77.76
2023-02-11T08:31:07.636Z,77.18
2023-02-11T08:33:34.696Z,77.00
2023-02-11T08:36:01.773Z,76.94
2023-02-11T08:38:28.129Z,77.23
2023-02-11T08:40:54.485Z,77.12
2023-02-11T08:43:20.840Z,77.14
2023-02-11T08:45:47.264Z,77.16
2023-02-11T08:48:13.636Z,76.80
2023-02-11T08:50:39.996Z,76.51
2023-02-11T08:53:06.351Z,76.35
2023-02-11T08:55:32.694Z,76.20
2023-02-11T08:57:59.039Z,76.02
2023-02-11T09:00:25.777Z,75.57
2023-02-11T09:02:52.242Z,75.51
2023-02-11T09:05:18.597Z,75.45
2023-02-11T09:07:44.999Z,75.51
2023-02-11T09:10:11.356Z,75.29
2023-02-11T09:12:37.711Z,75.04
2023-02-11T09:15:04.364Z,75.22
2023-02-11T09:17:30.710Z,75.41
2023-02-11T09:19:57.076Z,75.11
2023-02-11T09:22:23.449Z,75.68
2023-02-11T09:24:49.924Z,75.63
2023-02-11T09:27:16.270Z,75.55
2023-02-11T09:29:42.625Z,75.38
2023-02-11T09:32:10.011Z,75.60
2023-02-11T09:34:36.695Z,75.47
2023-02-11T09:37:03.144Z,75.81
2023-02-11T09:39:29.843Z,76.14
2023-02-11T09:42:20.776Z,76.07
2023-02-11T09:44:47.597Z,76.54
2023-02-11T09:47:31.962Z,76.05
2023-02-11T09:50:13.649Z,76.41
2023-02-11T09:53:02.778Z,76.45
2023-02-11T09:55:42.477Z,76.62
2023-02-11T09:58:21.150Z,76.50
2023-02-11T10:01:10.681Z,76.75
2023-02-11T10:03:43.376Z,76.64
2023-02-11T10:06:24.465Z,76.33
2023-02-11T10:09:01.536Z,76.42
2023-02-11T10:11:39.284Z,76.49
2023-02-11T10:14:33.959Z,76.11
2023-02-11T10:17:21.538Z,75.72
2023-02-11T10:20:16.948Z,76.00
2023-02-11T10:23:19.249Z,75.55
2023-02-11T10:25:50.673Z,75.29
2023-02-11T10:28:20.211Z,75.36
2023-02-11T10:31:15.793Z,75.79
2023-02-11T10:33:52.321Z,75.68
2023-02-11T10:36:19.702Z,75.63
2023-02-11T10:38:46.076Z,75.29
2023-02-11T10:41:25.024Z,75.01
2023-02-11T10:43:52.166Z,75.19
2023-02-11T10:46:24.043Z,75.22
2023-02-11T10:48:53.632Z,75.28
2023-02-11T10:51:34.206Z,75.28
2023-02-11T10:54:03.496Z,75.12
2023-02-11T10:56:32.620Z,75.10
2023-02-11T10:59:01.700Z,75.31
2023-02-11T11:01:40.748Z,75.00
2023-02-11T11:04:40.211Z,75.21
2023-02-11T11:07:22.741Z,75.12
2023-02-11T11:09:55.750Z,75.43
2023-02-11T11:12:32.956Z,75.45
2023-02-11T11:15:02.458Z,75.31
2023-02-11T11:17:29.177Z,75.29
2023-02-11T11:20:15.884Z,75.67
2023-02-11T11:22:43.167Z,75.63
2023-02-11T11:25:29.246Z,75.41
2023-02-11T11:27:59.153Z,75.41
2023-02-11T11:30:32.976Z,75.41
2023-02-11T11:33:00.821Z,75.71
2023-02-11T11:35:29.855Z,75.45
2023-02-11T11:38:02.345Z,75.57
2023-02-11T11:40:31.401Z,75.55
2023-02-11T11:43:23.255Z,75.15
2023-02-11T11:45:56.449Z,75.45
2023-02-11T11:48:28.328Z,75.32
2023-02-11T11:51:02.163Z,75.49
2023-02-11T11:53:41.204Z,75.30
2023-02-11T11:56:28.675Z,75.57
2023-02-11T11:58:55.039Z,75.31
2023-02-11T12:01:58.914Z,75.32
2023-02-11T12:05:15.355Z,75.38
2023-02-11T12:08:05.574Z,75.12
2023-02-11T12:10:44.057Z,75.33
2023-02-11T12:13:39.387Z,75.66
2023-02-11T12:16:28.384Z,75.86
2023-02-11T12:19:13.595Z,75.82
2023-02-11T12:21:58.283Z,76.47
2023-02-11T12:24:45.090Z,76.11
2023-02-11T12:27:43.872Z,76.54
2023-02-11T12:30:25.035Z,76.76
2023-02-11T12:33:39.925Z,76.56
2023-02-11T12:36:32.438Z,76.96
2023-02-11T12:39:16.719Z,76.96
2023-02-11T12:42:38.030Z,77.60
2023-02-11T12:45:14.002Z,77.89
2023-02-11T12:48:04.876Z,77.91
2023-02-11T12:50:46.227Z,78.02
2023-02-11T12:53:37.506Z,78.05
2023-02-11T12:56:18.208Z,78.44
2023-02-11T12:58:47.531Z,77.75
2023-02-11T13:01:23.529Z,78.54
2023-02-11T13:04:13.502Z,78.55
2023-02-11T13:06:51.880Z,78.50
2023-02-11T13:09:34.696Z,78.55
2023-02-11T13:12:24.267Z,78.82
2023-02-11T13:14:54.401Z,78.75
2023-02-11T13:17:29.922Z,78.66
2023-02-11T13:20:08.018Z,78.68
2023-02-11T13:22:44.030Z,78.42
2023-02-11T13:25:26.380Z,78.94
2023-02-11T13:28:25.628Z,78.87
2023-02-11T13:31:02.150Z,78.94
2023-02-11T13:33:35.308Z,78.68
2023-02-11T13:36:04.394Z,78.86
2023-02-11T13:38:32.431Z,78.85
2023-02-11T13:41:24.650Z,78.83
2023-02-11T13:44:04.082Z,78.85
2023-02-11T13:46:54.100Z,79.01
2023-02-11T13:49:24.573Z,78.85
2023-02-11T13:51:52.388Z,78.50
2023-02-11T13:54:39.595Z,79.13
2023-02-11T13:57:21.002Z,79.12
2023-02-11T13:59:51.680Z,79.21
2023-02-11T14:02:44.257Z,79.61
2023-02-11T14:09:01.811Z,79.31
2023-02-11T14:11:34.057Z,78.79
2023-02-11T14:14:18.783Z,79.35
2023-02-11T14:17:11.210Z,78.58
2023-02-11T14:19:40.804Z,78.78
2023-02-11T14:22:40.250Z,78.75
2023-02-11T14:25:20.112Z,78.42
2023-02-11T14:27:54.455Z,78.18
2023-02-11T14:30:30.534Z,78.21
2023-02-11T14:33:14.162Z,78.24
2023-02-11T14:36:07.001Z,78.51
2023-02-11T14:38:51.446Z,78.27
2023-02-11T14:41:24.508Z,78.05
2023-02-11T14:43:57.763Z,77.97
2023-02-11T14:46:27.830Z,78.19
2023-02-11T14:48:58.178Z,77.92
2023-02-11T14:51:28.114Z,77.93
2023-02-11T14:53:59.208Z,77.58
2023-02-11T14:56:31.232Z,77.90
2023-02-11T14:58:58.318Z,77.67
2023-02-11T15:01:33.854Z,77.80
2023-02-11T15:04:02.875Z,77.82
2023-02-11T15:06:36.724Z,77.86
2023-02-11T15:09:16.591Z,77.90
2023-02-11T15:11:46.520Z,78.07
2023-02-11T15:14:28.381Z,78.19
2023-02-11T15:16:58.292Z,78.47
2023-02-11T15:19:38.929Z,78.62
2023-02-11T15:22:10.582Z,78.13
2023-02-11T15:24:39.251Z,78.33
2023-02-11T15:27:08.602Z,78.55
2023-02-11T15:29:41.227Z,78.46
2023-02-11T15:32:17.686Z,78.43
2023-02-11T15:34:45.970Z,78.53
2023-02-11T15:37:24.807Z,78.34
2023-02-11T15:39:52.449Z,78.52
2023-02-11T15:42:27.689Z,78.39
2023-02-11T15:45:13.670Z,78.82
2023-02-11T15:47:53.001Z,79.28
2023-02-11T15:50:24.433Z,78.98
2023-02-11T15:52:52.418Z,79.37
2023-02-11T15:55:20.471Z,79.84
2023-02-11T15:57:54.772Z,80.52
2023-02-11T16:00:24.657Z,81.01
2023-02-11T16:02:52.381Z,80.82
2023-02-11T16:05:28.201Z,81.09
2023-02-11T16:07:55.673Z,81.20
2023-02-11T16:10:40.008Z,80.88
2023-02-11T16:13:06.310Z,81.41
2023-02-11T16:15:38.144Z,81.29
2023-02-11T16:18:14.088Z,81.50
2023-02-11T16:20:40.875Z,81.77
2023-02-11T16:23:07.837Z,82.22
2023-02-11T16:25:37.610Z,82.56
2023-02-11T16:28:05.607Z,82.69
2023-02-11T16:30:36.406Z,82.69
2023-02-11T16:33:04.156Z,82.84
2023-02-11T16:35:30.630Z,83.21
2023-02-11T16:37:57.380Z,83.48
2023-02-11T16:40:24.024Z,84.42
2023-02-11T16:42:52.357Z,85.30
2023-02-11T16:45:18.924Z,85.69
2023-02-11T16:47:46.129Z,86.01
2023-02-11T16:50:22.504Z,86.22
2023-02-11T16:52:49.179Z,86.41
2023-02-11T16:55:15.665Z,87.34
2023-02-11T16:57:42.005Z,87.75
2023-02-11T17:00:08.932Z,88.41
2023-02-11T17:02:36.965Z,88.46
2023-02-11T17:05:08.555Z,88.71
2023-02-11T17:07:35.290Z,89.43
2023-02-11T17:10:02.037Z,89.61
2023-02-11T17:12:28.390Z,89.58
2023-02-11T17:14:54.750Z,89.61
2023-02-11T17:17:23.864Z,89.69
2023-02-11T17:19:51.114Z,89.20
2023-02-11T17:22:18.412Z,88.88
2023-02-11T17:24:44.751Z,88.40
2023-02-11T17:27:11.762Z,87.88
2023-02-11T17:29:38.140Z,87.92
2023-02-11T17:32:04.619Z,87.49
2023-02-11T17:34:32.264Z,87.84
2023-02-11T17:37:00.073Z,87.98
2023-02-11T17:39:27.506Z,87.65
2023-02-11T17:41:53.881Z,87.46
2023-02-11T17:44:20.454Z,87.60
2023-02-11T17:46:46.834Z,87.67
2023-02-11T17:49:13.211Z,87.70
2023-02-11T17:51:40.246Z,87.68
2023-02-11T17:54:10.807Z,87.90
2023-02-11T17:56:37.653Z,88.00
2023-02-11T17:59:05.340Z,87.82
2023-02-11T18:01:33.370Z,88.14
2023-02-11T18:04:00.777Z,88.24
2023-02-11T18:06:28.967Z,88.47
2023-02-11T18:08:58.009Z,87.90
2023-02-11T18:11:25.246Z,88.56
2023-02-11T18:13:54.468Z,88.25
2023-02-11T18:16:22.357Z,88.67
2023-02-11T18:18:49.778Z,88.55
2023-02-11T18:21:20.756Z,88.92
2023-02-11T18:23:48.037Z,89.04
2023-02-11T18:26:16.140Z,89.09
2023-02-11T18:28:45.561Z,89.05
2023-02-11T18:31:13.714Z,89.44
2023-02-11T18:33:41.425Z,89.28
2023-02-11T18:36:09.751Z,89.61
2023-02-11T18:38:36.569Z,89.74
2023-02-11T18:41:04.041Z,89.82
2023-02-11T18:43:31.652Z,90.04
2023-02-11T18:45:58.401Z,90.06
2023-02-11T18:48:26.996Z,90.46
2023-02-11T18:50:54.470Z,90.42
2023-02-11T18:53:21.248Z,90.29
2023-02-11T18:55:47.811Z,90.27
2023-02-11T18:58:15.349Z,90.47
2023-02-11T19:00:44.484Z,90.54
2023-02-11T19:03:11.125Z,90.22
2023-02-11T19:05:46.510Z,89.98
2023-02-11T19:08:13.661Z,90.00
2023-02-11T19:10:42.397Z,90.20
2023-02-11T19:13:10.148Z,90.56
2023-02-11T19:15:41.422Z,90.65
2023-02-11T19:18:07.801Z,90.74
2023-02-11T19:20:34.163Z,90.67
2023-02-11T19:23:00.832Z,90.99
2023-02-11T19:25:27.473Z,91.42
2023-02-11T19:27:53.843Z,91.14
2023-02-11T19:30:20.252Z,91.47
2023-02-11T19:32:46.579Z,91.82
2023-02-11T19:35:12.941Z,91.73
2023-02-11T19:37:39.291Z,91.66
2023-02-11T19:40:06.383Z,91.44
2023-02-11T19:42:32.725Z,91.64
2023-02-11T19:44:59.120Z,91.32
2023-02-11T19:47:27.609Z,90.79
2023-02-11T19:49:54.395Z,90.76
2023-02-11T19:52:20.837Z,90.88
2023-02-11T19:54:47.218Z,91.42
2023-02-11T19:57:13.571Z,91.61
2023-02-11T19:59:40.008Z,91.53
2023-02-11T20:02:06.603Z,91.73
2023-02-11T20:04:33.270Z,91.86
2023-02-11T20:07:00.908Z,91.95
2023-02-11T20:09:28.941Z,91.69
2023-02-11T20:11:55.309Z,91.16
2023-02-11T20:14:21.660Z,91.70
2023-02-11T20:16:49.932Z,91.39
2023-02-11T20:19:19.195Z,91.88
2023-02-11T20:21:47.921Z,91.91
2023-02-11T20:24:18.042Z,92.18
2023-02-11T20:26:46.750Z,91.78
2023-02-11T20:29:13.127Z,91.98
2023-02-11T20:31:39.567Z,92.03
2023-02-11T20:34:05.970Z,92.53
2023-02-11T20:36:35.590Z,92.72
2023-02-11T20:39:02.996Z,92.55
2023-02-11T20:41:34.142Z,92.61
2023-02-11T20:44:04.390Z,92.05
2023-02-11T20:46:32.866Z,91.93
2023-02-11T20:49:00.430Z,91.98
2023-02-11T20:51:29.730Z,91.89
2023-02-11T20:53:56.721Z,91.87
2023-02-11T20:56:29.019Z,91.11
2023-02-11T20:58:57.576Z,91.16
2023-02-11T21:01:27.216Z,91.20
2023-02-11T21:04:00.804Z,90.79
2023-02-11T21:06:30.918Z,91.04
2023-02-11T21:08:57.544Z,90.63
2023-02-11T21:11:24.157Z,89.97
2023-02-11T21:13:51.041Z,90.55
2023-02-11T21:16:22.876Z,90.29
2023-02-11T21:18:50.489Z,90.74
2023-02-11T21:21:17.298Z,90.51
2023-02-11T21:23:43.843Z,90.30
2023-02-11T21:26:10.458Z,90.78
2023-02-11T21:28:40.522Z,90.41
2023-02-11T21:31:07.642Z,90.88
2023-02-11T21:33:34.625Z,91.31
2023-02-11T21:36:03.524Z,91.23
2023-02-11T21:38:30.411Z,90.64
2023-02-11T21:41:03.079Z,90.77
2023-02-11T21:43:29.841Z,90.69
2023-02-11T21:45:56.437Z,90.33
2023-02-11T21:48:23.827Z,90.58
2023-02-11T21:50:50.524Z,90.72
2023-02-11T21:53:16.912Z,90.86
2023-02-11T21:55:43.619Z,91.36
2023-02-11T21:58:11.049Z,91.23
2023-02-11T22:00:37.516Z,91.44
2023-02-11T22:03:03.943Z,91.62
2023-02-11T22:05:30.392Z,91.26
2023-02-11T22:07:56.799Z,91.51
2023-02-11T22:10:23.687Z,91.63
2023-02-11T22:12:50.047Z,91.87
2023-02-11T22:15:16.485Z,91.77
2023-02-11T22:17:42.855Z,91.73
2023-02-11T22:20:10.162Z,91.97
2023-02-11T22:22:36.536Z,91.64
2023-02-11T22:25:04.000Z,91.76
2023-02-11T22:27:30.712Z,91.72
2023-02-11T22:29:57.068Z,91.58
2023-02-11T22:32:23.455Z,91.76
2023-02-11T22:34:52.180Z,91.39
2023-02-11T22:37:19.667Z,91.75
2023-02-11T22:39:46.031Z,91.20
2023-02-11T22:42:12.404Z,91.58
2023-02-11T22:44:38.744Z,91.20
2023-02-11T22:47:05.100Z,91.60
2023-02-11T22:49:33.122Z,91.58
2023-02-11T22:51:59.954Z,91.14
2023-02-11T22:54:26.395Z,91.70
2023-02-11T22:56:53.337Z,91.08
2023-02-11T22:59:20.691Z,90.99
2023-02-11T23:01:48.788Z,91.20
2023-02-11T23:04:17.076Z,91.27
2023-02-11T23:06:43.891Z,91.29
2023-02-11T23:09:12.369Z,91.09
2023-02-11T23:11:40.468Z,91.11
2023-02-11T23:14:08.618Z,91.31
2023-02-11T23:16:35.413Z,91.23
2023-02-11T23:19:06.171Z,91.56
2023-02-11T23:21:35.706Z,91.39
2023-02-11T23:24:05.976Z,91.29
2023-02-11T23:26:32.457Z,91.21
2023-02-11T23:28:59.456Z,91.49
2023-02-11T23:31:34.633Z,91.78
2023-02-11T23:34:01.612Z,91.05
2023-02-11T23:36:28.488Z,91.17
2023-02-11T23:38:55.247Z,91.03
2023-02-11T23:41:21.686Z,91.10
2023-02-11T23:43:53.269Z,90.98
2023-02-11T23:46:22.099Z,91.31
2023-02-11T23:48:49.310Z,91.27
2023-02-11T23:51:16.099Z,91.23
2023-02-11T23:53:42.584Z,91.22
2023-02-11T23:56:11.128Z,91.59
2023-02-11T23:58:37.513Z,91.17
